sensor_id;sensor_type;location;lat;lon;timestamp;P1;durP1;ratioP1;P2;durP2;ratioP2
68690;SDS011;55675;49.588;8.640;2023-04-04T13:49:22;2.87;;;1.77;;
68690;SDS011;55675;49.588;8.640;2023-04-04T13:51:48;1.63;;;1.53;;
68690;SDS011;55675;49.588;8.640;2023-04-04T13:54:13;2.57;;;1.40;;
68690;SDS011;55675;49.588;8.640;2023-04-04T13:56:39;2.33;;;1.60;;
68690;SDS011;55675;49.588;8.640;2023-04-04T13:59:05;1.38;;;1.33;;
68690;SDS011;55675;49.588;8.640;2023-04-04T14:01:30;2.20;;;1.50;;
68690;SDS011;55675;49.588;8.640;2023-04-04T14:03:56;2.60;;;1.63;;
68690;SDS011;55675;49.588;8.640;2023-04-04T14:06:22;1.45;;;1.35;;
68690;SDS011;55675;49.588;8.640;2023-04-04T14:08:47;1.75;;;1.33;;
68690;SDS011;55675;49.588;8.640;2023-04-04T14:11:13;1.48;;;1.38;;
68690;SDS011;55675;49.588;8.640;2023-04-04T14:13:39;1.63;;;1.48;;
68690;SDS011;55675;49.588;8.640;2023-04-04T14:16:05;2.22;;;1.77;;
68690;SDS011;55675;49.588;8.640;2023-04-04T14:18:32;1.52;;;1.40;;
68690;SDS011;55675;49.588;8.640;2023-04-04T14:20:58;3.53;;;1.73;;
68690;SDS011;55675;49.588;8.640;2023-04-04T14:23:25;3.67;;;1.70;;
68690;SDS011;55675;49.588;8.640;2023-04-04T14:25:51;2.75;;;1.65;;
68690;SDS011;55675;49.588;8.640;2023-04-04T14:28:17;1.40;;;1.30;;
68690;SDS011;55675;49.588;8.640;2023-04-04T14:30:42;1.65;;;1.55;;
68690;SDS011;55675;49.588;8.640;2023-04-04T14:33:08;1.40;;;1.30;;
68690;SDS011;55675;49.588;8.640;2023-04-04T14:35:33;1.48;;;1.30;;
68690;SDS011;55675;49.588;8.640;2023-04-04T14:38:00;1.65;;;1.42;;
68690;SDS011;55675;49.588;8.640;2023-04-04T14:40:27;1.45;;;1.35;;
68690;SDS011;55675;49.588;8.640;2023-04-04T14:42:53;1.65;;;1.50;;
68690;SDS011;55675;49.588;8.640;2023-04-04T14:45:18;1.60;;;1.50;;
68690;SDS011;55675;49.588;8.640;2023-04-04T14:47:44;1.80;;;1.38;;
68690;SDS011;55675;49.588;8.640;2023-04-04T14:50:10;1.73;;;1.63;;
68690;SDS011;55675;49.588;8.640;2023-04-04T14:52:36;1.45;;;1.35;;
68690;SDS011;55675;49.588;8.640;2023-04-04T14:55:02;1.50;;;1.40;;
68690;SDS011;55675;49.588;8.640;2023-04-04T14:57:27;1.40;;;1.30;;
68690;SDS011;55675;49.588;8.640;2023-04-04T14:59:53;1.40;;;1.30;;
68690;SDS011;55675;49.588;8.640;2023-04-04T15:02:19;2.47;;;1.73;;
68690;SDS011;55675;49.588;8.640;2023-04-04T15:04:45;5.47;;;4.60;;
68690;SDS011;55675;49.588;8.640;2023-04-04T15:07:11;2.10;;;1.90;;
68690;SDS011;55675;49.588;8.640;2023-04-04T15:09:36;1.70;;;1.60;;
68690;SDS011;55675;49.588;8.640;2023-04-04T15:12:02;1.50;;;1.40;;
68690;SDS011;55675;49.588;8.640;2023-04-04T15:14:27;1.67;;;1.45;;
68690;SDS011;55675;49.588;8.640;2023-04-04T15:16:53;1.33;;;1.23;;
68690;SDS011;55675;49.588;8.640;2023-04-04T15:19:19;1.60;;;1.50;;
68690;SDS011;55675;49.588;8.640;2023-04-04T15:21:46;2.03;;;1.33;;
68690;SDS011;55675;49.588;8.640;2023-04-04T15:24:11;1.90;;;1.48;;
68690;SDS011;55675;49.588;8.640;2023-04-04T15:26:37;1.40;;;1.30;;
68690;SDS011;55675;49.588;8.640;2023-04-04T15:29:03;1.60;;;1.50;;
68690;SDS011;55675;49.588;8.640;2023-04-04T15:31:29;1.85;;;1.50;;
68690;SDS011;55675;49.588;8.640;2023-04-04T15:33:55;2.38;;;1.60;;
68690;SDS011;55675;49.588;8.640;2023-04-04T15:36:23;1.52;;;1.40;;
68690;SDS011;55675;49.588;8.640;2023-04-04T15:38:50;1.67;;;1.58;;
68690;SDS011;55675;49.588;8.640;2023-04-04T15:41:16;1.50;;;1.40;;
68690;SDS011;55675;49.588;8.640;2023-04-04T15:43:41;1.55;;;1.45;;
68690;SDS011;55675;49.588;8.640;2023-04-04T15:46:07;1.27;;;1.20;;
68690;SDS011;55675;49.588;8.640;2023-04-04T15:48:32;1.52;;;1.33;;
68690;SDS011;55675;49.588;8.640;2023-04-04T15:50:59;1.63;;;1.52;;
68690;SDS011;55675;49.588;8.640;2023-04-04T15:53:27;2.22;;;1.63;;
68690;SDS011;55675;49.588;8.640;2023-04-04T15:55:53;1.40;;;1.33;;
68690;SDS011;55675;49.588;8.640;2023-04-04T15:58:19;1.85;;;1.55;;
68690;SDS011;55675;49.588;8.640;2023-04-04T16:00:45;2.00;;;1.80;;
68690;SDS011;55675;49.588;8.640;2023-04-04T16:03:11;1.88;;;1.63;;
68690;SDS011;55675;49.588;8.640;2023-04-04T16:05:37;2.65;;;1.60;;
68690;SDS011;55675;49.588;8.640;2023-04-04T16:08:02;1.83;;;1.50;;
68690;SDS011;55675;49.588;8.640;2023-04-04T16:10:28;1.63;;;1.38;;
68690;SDS011;55675;49.588;8.640;2023-04-04T16:12:53;1.67;;;1.58;;
68690;SDS011;55675;49.588;8.640;2023-04-04T16:15:19;1.35;;;1.35;;
68690;SDS011;55675;49.588;8.640;2023-04-04T16:17:45;1.50;;;1.40;;
68690;SDS011;55675;49.588;8.640;2023-04-04T16:20:11;2.38;;;1.50;;
68690;SDS011;55675;49.588;8.640;2023-04-04T16:22:36;1.95;;;1.40;;
68690;SDS011;55675;49.588;8.640;2023-04-04T16:25:02;1.50;;;1.40;;
68690;SDS011;55675;49.588;8.640;2023-04-04T17:42:45;3.83;;;2.35;;
68690;SDS011;55675;49.588;8.640;2023-04-04T17:45:11;1.93;;;1.73;;
68690;SDS011;55675;49.588;8.640;2023-04-04T17:47:36;2.27;;;2.00;;
68690;SDS011;55675;49.588;8.640;2023-04-04T17:50:03;2.27;;;1.90;;
68690;SDS011;55675;49.588;8.640;2023-04-04T17:52:30;4.43;;;1.93;;
68690;SDS011;55675;49.588;8.640;2023-04-04T17:54:55;2.87;;;2.23;;
68690;SDS011;55675;49.588;8.640;2023-04-04T17:57:21;2.40;;;2.17;;
68690;SDS011;55675;49.588;8.640;2023-04-04T17:59:47;1.77;;;1.67;;
68690;SDS011;55675;49.588;8.640;2023-04-04T18:02:12;2.17;;;1.80;;
68690;SDS011;55675;49.588;8.640;2023-04-04T18:04:38;3.80;;;1.80;;
68690;SDS011;55675;49.588;8.640;2023-04-04T18:07:04;4.83;;;2.20;;
68690;SDS011;55675;49.588;8.640;2023-04-04T18:09:33;3.07;;;2.53;;
68690;SDS011;55675;49.588;8.640;2023-04-04T18:11:59;4.40;;;3.00;;
68690;SDS011;55675;49.588;8.640;2023-04-04T18:14:25;3.47;;;2.60;;
68690;SDS011;55675;49.588;8.640;2023-04-04T18:16:51;3.20;;;2.50;;
68690;SDS011;55675;49.588;8.640;2023-04-04T18:19:17;5.10;;;2.20;;
68690;SDS011;55675;49.588;8.640;2023-04-04T18:21:45;2.90;;;2.13;;
68690;SDS011;55675;49.588;8.640;2023-04-04T18:24:12;2.40;;;2.20;;
68690;SDS011;55675;49.588;8.640;2023-04-04T18:26:38;2.40;;;2.20;;
68690;SDS011;55675;49.588;8.640;2023-04-04T18:29:04;2.53;;;1.90;;
68690;SDS011;55675;49.588;8.640;2023-04-04T18:31:29;2.93;;;2.50;;
68690;SDS011;55675;49.588;8.640;2023-04-04T18:33:55;2.67;;;2.40;;
68690;SDS011;55675;49.588;8.640;2023-04-04T18:36:21;4.50;;;2.97;;
68690;SDS011;55675;49.588;8.640;2023-04-04T18:38:46;3.07;;;2.77;;
68690;SDS011;55675;49.588;8.640;2023-04-04T18:41:12;4.33;;;3.00;;
68690;SDS011;55675;49.588;8.640;2023-04-04T18:43:39;3.53;;;2.90;;
68690;SDS011;55675;49.588;8.640;2023-04-04T18:46:05;7.27;;;3.20;;
68690;SDS011;55675;49.588;8.640;2023-04-04T18:48:32;4.17;;;3.20;;
68690;SDS011;55675;49.588;8.640;2023-04-04T18:50:58;4.57;;;2.93;;
68690;SDS011;55675;49.588;8.640;2023-04-04T18:53:24;4.53;;;3.00;;
68690;SDS011;55675;49.588;8.640;2023-04-04T18:55:53;3.20;;;2.60;;
68690;SDS011;55675;49.588;8.640;2023-04-04T18:58:19;3.70;;;2.80;;
68690;SDS011;55675;49.588;8.640;2023-04-04T19:00:45;2.87;;;2.07;;
68690;SDS011;55675;49.588;8.640;2023-04-04T19:03:10;4.10;;;2.40;;
68690;SDS011;55675;49.588;8.640;2023-04-04T19:05:37;3.77;;;2.60;;
68690;SDS011;55675;49.588;8.640;2023-04-04T19:08:03;4.70;;;2.70;;
68690;SDS011;55675;49.588;8.640;2023-04-04T19:10:32;2.57;;;2.33;;
68690;SDS011;55675;49.588;8.640;2023-04-04T19:12:58;3.53;;;2.60;;
68690;SDS011;55675;49.588;8.640;2023-04-04T19:15:23;2.63;;;2.30;;
68690;SDS011;55675;49.588;8.640;2023-04-04T19:17:49;3.27;;;1.73;;
68690;SDS011;55675;49.588;8.640;2023-04-04T19:20:15;1.83;;;1.73;;
68690;SDS011;55675;49.588;8.640;2023-04-04T19:22:40;3.07;;;1.93;;
68690;SDS011;55675;49.588;8.640;2023-04-04T19:25:06;4.03;;;2.17;;
68690;SDS011;55675;49.588;8.640;2023-04-04T19:27:32;2.23;;;1.80;;
68690;SDS011;55675;49.588;8.640;2023-04-04T19:29:58;2.27;;;2.07;;
68690;SDS011;55675;49.588;8.640;2023-04-04T19:32:25;2.93;;;2.10;;
68690;SDS011;55675;49.588;8.640;2023-04-04T19:34:51;2.93;;;2.27;;
68690;SDS011;55675;49.588;8.640;2023-04-04T19:37:17;2.30;;;2.00;;
68690;SDS011;55675;49.588;8.640;2023-04-04T19:39:43;2.23;;;2.03;;
68690;SDS011;55675;49.588;8.640;2023-04-04T19:42:08;2.23;;;2.03;;
68690;SDS011;55675;49.588;8.640;2023-04-04T19:44:35;2.40;;;2.20;;
68690;SDS011;55675;49.588;8.640;2023-04-04T19:47:03;2.40;;;2.20;;
68690;SDS011;55675;49.588;8.640;2023-04-04T19:49:28;2.70;;;2.00;;
68690;SDS011;55675;49.588;8.640;2023-04-04T19:51:57;2.83;;;2.00;;
68690;SDS011;55675;49.588;8.640;2023-04-04T19:54:28;3.87;;;2.20;;
68690;SDS011;55675;49.588;8.640;2023-04-04T19:57:08;2.20;;;2.00;;
68690;SDS011;55675;49.588;8.640;2023-04-04T20:04:51;3.17;;;1.80;;
68690;SDS011;55675;49.588;8.640;2023-04-04T20:07:17;2.30;;;2.00;;
68690;SDS011;55675;49.588;8.640;2023-04-04T20:09:43;2.30;;;2.10;;
68690;SDS011;55675;49.588;8.640;2023-04-04T20:12:08;3.17;;;2.00;;
68690;SDS011;55675;49.588;8.640;2023-04-04T20:14:35;2.43;;;2.17;;
68690;SDS011;55675;49.588;8.640;2023-04-04T20:17:02;4.13;;;2.07;;
68690;SDS011;55675;49.588;8.640;2023-04-04T20:19:28;3.10;;;2.03;;
68690;SDS011;55675;49.588;8.640;2023-04-04T20:21:54;5.73;;;2.90;;
68690;SDS011;55675;49.588;8.640;2023-04-04T20:24:20;4.87;;;3.40;;
68690;SDS011;55675;49.588;8.640;2023-04-04T20:26:52;2.67;;;2.47;;
68690;SDS011;55675;49.588;8.640;2023-04-04T20:29:23;3.80;;;3.17;;
68690;SDS011;55675;49.588;8.640;2023-04-04T20:31:53;2.63;;;2.43;;
68690;SDS011;55675;49.588;8.640;2023-04-04T20:37:14;3.20;;;2.50;;
68690;SDS011;55675;49.588;8.640;2023-04-04T20:50:18;3.20;;;2.57;;
68690;SDS011;55675;49.588;8.640;2023-04-04T20:52:45;2.90;;;2.43;;
68690;SDS011;55675;49.588;8.640;2023-04-04T20:55:12;3.50;;;2.27;;
68690;SDS011;55675;49.588;8.640;2023-04-04T20:57:38;5.93;;;2.80;;
68690;SDS011;55675;49.588;8.640;2023-04-04T21:02:59;2.60;;;2.30;;
68690;SDS011;55675;49.588;8.640;2023-04-04T21:05:32;2.47;;;2.13;;
68690;SDS011;55675;49.588;8.640;2023-04-04T21:08:00;3.77;;;2.50;;
68690;SDS011;55675;49.588;8.640;2023-04-04T21:12:56;2.47;;;2.17;;
68690;SDS011;55675;49.588;8.640;2023-04-04T21:15:27;2.60;;;2.07;;
68690;SDS011;55675;49.588;8.640;2023-04-04T21:17:54;3.87;;;2.30;;
68690;SDS011;55675;49.588;8.640;2023-04-04T21:25:50;4.90;;;2.37;;
68690;SDS011;55675;49.588;8.640;2023-04-04T21:28:31;2.60;;;2.00;;
68690;SDS011;55675;49.588;8.640;2023-04-04T21:31:09;4.23;;;2.10;;
68690;SDS011;55675;49.588;8.640;2023-04-04T21:33:42;4.67;;;2.70;;
68690;SDS011;55675;49.588;8.640;2023-04-04T21:36:10;3.53;;;2.10;;
68690;SDS011;55675;49.588;8.640;2023-04-04T21:38:55;2.50;;;2.30;;
68690;SDS011;55675;49.588;8.640;2023-04-04T21:41:31;2.00;;;1.70;;
68690;SDS011;55675;49.588;8.640;2023-04-04T21:44:02;2.30;;;2.10;;
68690;SDS011;55675;49.588;8.640;2023-04-04T21:46:36;2.97;;;1.90;;
68690;SDS011;55675;49.588;8.640;2023-04-04T21:49:03;2.70;;;2.07;;
68690;SDS011;55675;49.588;8.640;2023-04-04T21:51:29;2.20;;;2.00;;
68690;SDS011;55675;49.588;8.640;2023-04-04T21:53:55;4.13;;;1.93;;
68690;SDS011;55675;49.588;8.640;2023-04-04T21:56:21;2.63;;;1.70;;
68690;SDS011;55675;49.588;8.640;2023-04-04T21:58:51;2.00;;;1.80;;
68690;SDS011;55675;49.588;8.640;2023-04-04T22:01:19;3.07;;;2.00;;
68690;SDS011;55675;49.588;8.640;2023-04-04T22:03:45;1.97;;;1.70;;
68690;SDS011;55675;49.588;8.640;2023-04-04T22:06:11;4.73;;;2.00;;
68690;SDS011;55675;49.588;8.640;2023-04-04T22:08:36;3.30;;;2.07;;
68690;SDS011;55675;49.588;8.640;2023-04-04T22:11:02;2.00;;;1.90;;
68690;SDS011;55675;49.588;8.640;2023-04-04T22:13:28;4.23;;;2.37;;
68690;SDS011;55675;49.588;8.640;2023-04-04T22:16:00;2.50;;;2.27;;
68690;SDS011;55675;49.588;8.640;2023-04-04T22:18:28;3.37;;;1.93;;
68690;SDS011;55675;49.588;8.640;2023-04-04T22:20:58;2.10;;;1.90;;
68690;SDS011;55675;49.588;8.640;2023-04-04T22:23:27;3.17;;;2.00;;
68690;SDS011;55675;49.588;8.640;2023-04-04T22:25:59;3.43;;;2.10;;
68690;SDS011;55675;49.588;8.640;2023-04-04T22:28:34;5.37;;;2.27;;
68690;SDS011;55675;49.588;8.640;2023-04-04T22:31:01;2.33;;;2.13;;
68690;SDS011;55675;49.588;8.640;2023-04-04T22:33:28;5.30;;;2.13;;
68690;SDS011;55675;49.588;8.640;2023-04-04T22:35:56;2.37;;;2.17;;
68690;SDS011;55675;49.588;8.640;2023-04-04T22:38:23;3.30;;;2.50;;
68690;SDS011;55675;49.588;8.640;2023-04-04T22:40:49;2.30;;;2.00;;
68690;SDS011;55675;49.588;8.640;2023-04-04T22:43:15;3.23;;;2.43;;
68690;SDS011;55675;49.588;8.640;2023-04-04T22:45:40;2.47;;;2.10;;
68690;SDS011;55675;49.588;8.640;2023-04-04T22:48:07;2.17;;;1.93;;
68690;SDS011;55675;49.588;8.640;2023-04-04T22:50:32;3.10;;;2.40;;
68690;SDS011;55675;49.588;8.640;2023-04-04T22:53:00;2.07;;;1.93;;
68690;SDS011;55675;49.588;8.640;2023-04-04T22:55:27;3.30;;;2.53;;
68690;SDS011;55675;49.588;8.640;2023-04-04T22:57:53;3.03;;;2.30;;
68690;SDS011;55675;49.588;8.640;2023-04-04T23:00:18;3.80;;;1.97;;
68690;SDS011;55675;49.588;8.640;2023-04-04T23:02:44;2.97;;;2.63;;
68690;SDS011;55675;49.588;8.640;2023-04-04T23:05:11;5.23;;;2.40;;
68690;SDS011;55675;49.588;8.640;2023-04-04T23:07:39;4.00;;;2.27;;
68690;SDS011;55675;49.588;8.640;2023-04-04T23:10:06;3.23;;;2.50;;
68690;SDS011;55675;49.588;8.640;2023-04-04T23:12:37;2.57;;;2.07;;
68690;SDS011;55675;49.588;8.640;2023-04-04T23:15:03;2.63;;;2.43;;
68690;SDS011;55675;49.588;8.640;2023-04-04T23:17:30;2.53;;;2.33;;
68690;SDS011;55675;49.588;8.640;2023-04-04T23:19:56;3.03;;;2.40;;
68690;SDS011;55675;49.588;8.640;2023-04-04T23:22:23;3.57;;;2.40;;
68690;SDS011;55675;49.588;8.640;2023-04-04T23:24:49;3.47;;;1.97;;
68690;SDS011;55675;49.588;8.640;2023-04-04T23:27:14;3.53;;;2.37;;
68690;SDS011;55675;49.588;8.640;2023-04-04T23:29:40;2.43;;;2.00;;
68690;SDS011;55675;49.588;8.640;2023-04-04T23:32:06;2.47;;;2.07;;
68690;SDS011;55675;49.588;8.640;2023-04-04T23:34:32;3.10;;;2.20;;
68690;SDS011;55675;49.588;8.640;2023-04-04T23:36:58;2.27;;;2.07;;
68690;SDS011;55675;49.588;8.640;2023-04-04T23:39:23;3.20;;;2.10;;
68690;SDS011;55675;49.588;8.640;2023-04-04T23:41:49;2.87;;;2.17;;
68690;SDS011;55675;49.588;8.640;2023-04-04T23:44:15;3.67;;;2.23;;
68690;SDS011;55675;49.588;8.640;2023-04-04T23:46:41;2.40;;;2.20;;
68690;SDS011;55675;49.588;8.640;2023-04-04T23:49:07;2.50;;;2.30;;
68690;SDS011;55675;49.588;8.640;2023-04-04T23:51:33;3.13;;;2.20;;
68690;SDS011;55675;49.588;8.640;2023-04-04T23:54:03;3.73;;;2.27;;
68690;SDS011;55675;49.588;8.640;2023-04-04T23:56:30;2.50;;;2.20;;
68690;SDS011;55675;49.588;8.640;2023-04-04T23:58:56;2.77;;;2.20;;
